»·PEaware :: N104MR KEUG-KBLI

N104MR :: KEUG-KBLI

FLIGHT INFORMATION

Flight Status: Arrived
Operator: Privately registered:
United States
More flights under this callsign
Pilot: Michael R. (16974)
Aircraft: BEECH AIRCRAFT BEECH AIRLINER
(B190)
More flights by this aircraft type
Origin: KEUG Mahlon Sweet
United States
Destination: KBLI Bellingham Intl
United States
More flights between these airports :: More routes between these airports
Route: CVO UBG OLM PAE MADEE4
File this flight plan on PilotEdge
Remarks:
Altitude:
(Current/Filed)
20,000ft
Speed:
(Current/Filed)
270kts
Departed: 12-Jan-18 03:49 PM
Arrived: 12-Jan-18 05:08 PM
Distance/Time
Traveled:
282nm/1:19
Distance/Time
To Go:
Arrived

Flight Plot

Page will automatically refresh every two minutes.

Flight plan parsing failed; only flown route is shown


Map Options




Map Legend


Flown Route
Filed Route
Departure Airport
Arrival Airport
Navaid (VOR, NDB)
Fix

Horizontal Profiles

Position Reports

Time Latitude Longitude Heading Altitude Ground
Speed
12-Jan-18 15:39 44.115104 -123.215524 1 370ft 0kts
12-Jan-18 15:40 44.115104 -123.215524 1 370ft 0kts
12-Jan-18 15:41 44.115104 -123.215524 1 370ft 0kts
12-Jan-18 15:42 44.115104 -123.215524 1 370ft 0kts
12-Jan-18 15:43 44.115183 -123.215521 1 370ft 4kts
12-Jan-18 15:44 44.115532 -123.216303 273 369ft 0kts
12-Jan-18 15:45 44.115532 -123.216303 273 369ft 0kts
12-Jan-18 15:46 44.115533 -123.216331 273 369ft 2kts
12-Jan-18 15:47 44.118346 -123.217025 358 367ft 34kts
12-Jan-18 15:48 44.129965 -123.217195 357 360ft 33kts
12-Jan-18 15:49 44.135134 -123.217363 323 357ft 15kts
12-Jan-18 15:50 44.135299 -123.217975 268 356ft 0kts
12-Jan-18 15:51 44.135299 -123.217975 268 356ft 0kts
12-Jan-18 15:52 44.135299 -123.217975 268 356ft 0kts
12-Jan-18 15:53 44.135299 -123.217987 268 356ft 1kts
12-Jan-18 15:54 44.134562 -123.219096 176 356ft 0kts
12-Jan-18 15:55 44.098021 -123.215684 178 1839ft 171kts
12-Jan-18 15:56 44.051638 -123.208281 182 3804ft 155kts
12-Jan-18 15:57 44.011268 -123.203800 187 5753ft 141kts
12-Jan-18 15:58 43.994939 -123.223467 322 7728ft 105kts
12-Jan-18 15:59 44.026200 -123.235027 335 9062ft 153kts
12-Jan-18 16:00 44.073985 -123.241871 349 9142ft 176kts
12-Jan-18 16:01 44.116283 -123.244570 351 10903ft 144kts
12-Jan-18 16:02 44.153973 -123.240429 351 12665ft 130kts
12-Jan-18 16:03 44.193062 -123.236665 353 14319ft 169kts
12-Jan-18 16:04 44.244425 -123.230775 355 16154ft 197kts
12-Jan-18 16:05 44.299926 -123.224171 355 17953ft 204kts
12-Jan-18 16:06 44.355889 -123.217575 354 19733ft 200kts
12-Jan-18 16:07 44.415764 -123.210942 356 20034ft 232kts
12-Jan-18 16:08 44.482213 -123.203217 357 20038ft 248kts
12-Jan-18 16:09 44.551767 -123.195039 357 20036ft 254kts
12-Jan-18 16:10 44.621523 -123.186913 357 20035ft 255kts
12-Jan-18 16:11 44.692281 -123.178651 357 20034ft 256kts
12-Jan-18 16:12 44.763023 -123.170358 357 20025ft 256kts
12-Jan-18 16:13 44.833188 -123.162158 356 20024ft 254kts
12-Jan-18 16:14 44.892795 -123.155167 356 20024ft 254kts
12-Jan-18 16:15 44.962804 -123.146955 356 20024ft 253kts
12-Jan-18 16:16 45.032778 -123.138717 356 20024ft 253kts
12-Jan-18 16:17 45.102494 -123.130483 356 20024ft 253kts
12-Jan-18 16:18 45.170140 -123.122476 356 20028ft 254kts
12-Jan-18 16:19 45.239948 -123.114188 356 20027ft 254kts
12-Jan-18 16:20 45.309954 -123.105803 356 20027ft 252kts
12-Jan-18 16:21 45.379655 -123.097535 356 20018ft 252kts
12-Jan-18 16:22 45.449096 -123.089235 356 20017ft 252kts
12-Jan-18 16:23 45.518792 -123.080893 356 20018ft 253kts
12-Jan-18 16:24 45.589344 -123.072416 356 20017ft 256kts
12-Jan-18 16:25 45.659974 -123.063896 356 20023ft 256kts
12-Jan-18 16:26 45.730646 -123.055357 356 20026ft 256kts
12-Jan-18 16:27 45.801615 -123.046709 355 20025ft 256kts
12-Jan-18 16:28 45.872338 -123.038214 355 20025ft 256kts
12-Jan-18 16:29 45.931310 -123.031005 355 20025ft 255kts
12-Jan-18 16:30 46.013659 -123.020953 355 20024ft 255kts
12-Jan-18 16:31 46.084354 -123.012304 355 20024ft 255kts
12-Jan-18 16:32 46.140305 -123.005460 355 20029ft 256kts
12-Jan-18 16:33 46.210183 -122.996855 355 20029ft 256kts
12-Jan-18 16:34 46.292385 -122.986643 355 20028ft 256kts
12-Jan-18 16:35 46.350790 -122.979487 355 20028ft 256kts
12-Jan-18 16:36 46.421089 -122.970793 355 20009ft 256kts
12-Jan-18 16:37 46.491469 -122.962054 355 20009ft 256kts
12-Jan-18 16:38 46.561530 -122.953333 355 20009ft 255kts
12-Jan-18 16:39 46.631909 -122.944549 355 20009ft 255kts
12-Jan-18 16:40 46.702456 -122.935720 355 20008ft 255kts
12-Jan-18 16:41 46.772970 -122.926779 354 20008ft 255kts
12-Jan-18 16:42 46.843461 -122.917981 354 20008ft 254kts
12-Jan-18 16:43 46.913313 -122.909184 354 20021ft 254kts
12-Jan-18 16:44 46.982973 -122.894627 12 20040ft 269kts
12-Jan-18 16:45 47.051420 -122.850284 12 20025ft 270kts
12-Jan-18 16:46 47.117580 -122.807370 12 20030ft 271kts
12-Jan-18 16:47 47.184211 -122.764060 12 20031ft 271kts
12-Jan-18 16:48 47.250313 -122.720936 12 20031ft 270kts
12-Jan-18 16:49 47.317421 -122.677055 12 20030ft 271kts
12-Jan-18 16:50 47.382492 -122.634444 12 20029ft 271kts
12-Jan-18 16:51 47.450238 -122.589929 12 20031ft 271kts
12-Jan-18 16:52 47.513098 -122.548502 12 20013ft 272kts
12-Jan-18 16:53 47.581076 -122.503577 12 20022ft 271kts
12-Jan-18 16:54 47.645911 -122.460719 12 19649ft 282kts
12-Jan-18 16:55 47.717479 -122.413105 12 18901ft 290kts
12-Jan-18 16:56 47.787264 -122.366409 12 18125ft 274kts
12-Jan-18 16:57 47.852017 -122.323243 12 17365ft 272kts
12-Jan-18 16:58 47.920202 -122.281713 349 16528ft 251kts
12-Jan-18 16:59 47.986984 -122.297583 340 15728ft 244kts
12-Jan-18 17:00 48.053141 -122.316379 339 14897ft 246kts
12-Jan-18 17:01 48.117486 -122.335008 340 13903ft 250kts
12-Jan-18 17:02 48.182179 -122.353840 340 12636ft 239kts
12-Jan-18 17:03 48.245021 -122.372307 342 11094ft 236kts
12-Jan-18 17:04 48.309007 -122.391055 344 9311ft 240kts
12-Jan-18 17:05 48.374220 -122.409995 344 7508ft 241kts
12-Jan-18 17:06 48.435281 -122.427731 344 6698ft 204kts
12-Jan-18 17:07 48.486218 -122.461408 324 5302ft 203kts
12-Jan-18 17:08 48.535081 -122.505344 326 3904ft 207kts
12-Jan-18 17:09 48.587363 -122.536916 358 2656ft 207kts
12-Jan-18 17:10 48.642119 -122.536955 359 2232ft 182kts
12-Jan-18 17:11 48.691050 -122.537194 0 1985ft 183kts
12-Jan-18 17:12 48.740896 -122.537318 1 1128ft 165kts
12-Jan-18 17:13 48.779719 -122.537494 359 277ft 115kts
12-Jan-18 17:14 48.791833 -122.534921 38 163ft 13kts
12-Jan-18 17:15 48.793000 -122.532349 196 162ft 11kts
12-Jan-18 17:16 48.792485 -122.533312 280 163ft 0kts
12-Jan-18 17:17 48.792485 -122.533312 280 163ft 0kts
12-Jan-18 17:18 48.792485 -122.533312 280 163ft 0kts
12-Jan-18 17:19 48.792485 -122.533312 280 163ft 0kts
12-Jan-18 17:20 48.792485 -122.533312 280 163ft 0kts
12-Jan-18 17:21 48.792485 -122.533312 280 163ft 0kts
12-Jan-18 17:22 48.792485 -122.533312 280 163ft 0kts
12-Jan-18 17:23 48.792485 -122.533312 280 163ft 0kts
12-Jan-18 17:24 48.792485 -122.533312 280 163ft 0kts
12-Jan-18 17:25 48.792485 -122.533312 280 163ft 0kts
12-Jan-18 17:26 48.792485 -122.533312 280 163ft 0kts
12-Jan-18 17:27 48.792485 -122.533312 280 163ft 0kts
12-Jan-18 17:28 48.792485 -122.533312 280 163ft 0kts

Navigation Log

Ident Type
Flight plan parsing failed, navigation log unavailable